sensor_id;sensor_type;location;lat;lon;timestamp;P1;durP1;ratioP1;P2;durP2;ratioP2
52304;SDS011;38248;52.722;6.734;2022-09-12T00:00:41;21.58;;;19.25;;
52304;SDS011;38248;52.722;6.734;2022-09-12T00:03:10;21.42;;;19.42;;
52304;SDS011;38248;52.722;6.734;2022-09-12T00:05:39;19.02;;;17.00;;
52304;SDS011;38248;52.722;6.734;2022-09-12T00:08:06;18.35;;;16.60;;
52304;SDS011;38248;52.722;6.734;2022-09-12T00:10:32;19.13;;;17.30;;
52304;SDS011;38248;52.722;6.734;2022-09-12T00:13:00;21.90;;;19.65;;
52304;SDS011;38248;52.722;6.734;2022-09-12T00:15:26;18.75;;;17.05;;
52304;SDS011;38248;52.722;6.734;2022-09-12T00:17:52;21.48;;;19.38;;
52304;SDS011;38248;52.722;6.734;2022-09-12T00:20:17;17.83;;;16.13;;
52304;SDS011;38248;52.722;6.734;2022-09-12T00:22:43;18.13;;;16.52;;
52304;SDS011;38248;52.722;6.734;2022-09-12T00:25:08;17.58;;;15.80;;
52304;SDS011;38248;52.722;6.734;2022-09-12T00:27:34;18.02;;;16.08;;
52304;SDS011;38248;52.722;6.734;2022-09-12T00:30:00;17.75;;;15.93;;
52304;SDS011;38248;52.722;6.734;2022-09-12T00:32:25;19.38;;;16.02;;
52304;SDS011;38248;52.722;6.734;2022-09-12T00:34:51;19.67;;;17.63;;
52304;SDS011;38248;52.722;6.734;2022-09-12T00:37:16;18.30;;;16.40;;
52304;SDS011;38248;52.722;6.734;2022-09-12T00:39:42;22.45;;;19.35;;
52304;SDS011;38248;52.722;6.734;2022-09-12T00:42:08;21.90;;;19.17;;
52304;SDS011;38248;52.722;6.734;2022-09-12T00:47:03;22.73;;;19.17;;
52304;SDS011;38248;52.722;6.734;2022-09-12T00:52:13;26.45;;;23.27;;
52304;SDS011;38248;52.722;6.734;2022-09-12T00:54:52;24.10;;;21.63;;
52304;SDS011;38248;52.722;6.734;2022-09-12T00:57:20;26.55;;;21.77;;
52304;SDS011;38248;52.722;6.734;2022-09-12T01:00:08;25.65;;;22.23;;
52304;SDS011;38248;52.722;6.734;2022-09-12T01:02:38;23.52;;;21.23;;
52304;SDS011;38248;52.722;6.734;2022-09-12T01:05:05;21.88;;;19.73;;
52304;SDS011;38248;52.722;6.734;2022-09-12T01:07:33;23.58;;;21.17;;
52304;SDS011;38248;52.722;6.734;2022-09-12T01:10:01;26.35;;;23.65;;
52304;SDS011;38248;52.722;6.734;2022-09-12T01:12:27;25.33;;;21.83;;
52304;SDS011;38248;52.722;6.734;2022-09-12T01:14:53;29.83;;;23.98;;
52304;SDS011;38248;52.722;6.734;2022-09-12T01:17:19;30.63;;;25.40;;
52304;SDS011;38248;52.722;6.734;2022-09-12T01:19:53;26.42;;;23.60;;
52304;SDS011;38248;52.722;6.734;2022-09-12T01:22:44;26.83;;;23.83;;
52304;SDS011;38248;52.722;6.734;2022-09-12T01:31:07;23.85;;;21.10;;
52304;SDS011;38248;52.722;6.734;2022-09-12T01:39:38;28.08;;;23.95;;
52304;SDS011;38248;52.722;6.734;2022-09-12T01:42:16;28.50;;;24.27;;
52304;SDS011;38248;52.722;6.734;2022-09-12T01:44:54;28.83;;;25.67;;
52304;SDS011;38248;52.722;6.734;2022-09-12T01:48:01;27.30;;;22.33;;
52304;SDS011;38248;52.722;6.734;2022-09-12T01:50:31;29.23;;;23.30;;
52304;SDS011;38248;52.722;6.734;2022-09-12T01:55:32;30.85;;;23.20;;
52304;SDS011;38248;52.722;6.734;2022-09-12T02:00:48;30.65;;;23.77;;
52304;SDS011;38248;52.722;6.734;2022-09-12T02:03:22;30.08;;;22.75;;
52304;SDS011;38248;52.722;6.734;2022-09-12T02:05:53;23.20;;;20.70;;
52304;SDS011;38248;52.722;6.734;2022-09-12T02:08:25;26.02;;;20.75;;
52304;SDS011;38248;52.722;6.734;2022-09-12T02:11:18;44.53;;;24.70;;
52304;SDS011;38248;52.722;6.734;2022-09-12T02:16:41;46.63;;;21.60;;
52304;SDS011;38248;52.722;6.734;2022-09-12T02:19:17;24.60;;;20.42;;
52304;SDS011;38248;52.722;6.734;2022-09-12T02:21:51;22.17;;;19.65;;
52304;SDS011;38248;52.722;6.734;2022-09-12T02:24:19;25.75;;;21.38;;
52304;SDS011;38248;52.722;6.734;2022-09-12T02:26:49;21.95;;;18.75;;
52304;SDS011;38248;52.722;6.734;2022-09-12T02:29:19;35.15;;;22.67;;
52304;SDS011;38248;52.722;6.734;2022-09-12T02:31:46;58.03;;;20.98;;
52304;SDS011;38248;52.722;6.734;2022-09-12T02:34:21;76.78;;;23.70;;
52304;SDS011;38248;52.722;6.734;2022-09-12T02:39:50;133.65;;;25.48;;
52304;SDS011;38248;52.722;6.734;2022-09-12T02:42:19;64.68;;;24.20;;
52304;SDS011;38248;52.722;6.734;2022-09-12T02:44:45;29.38;;;23.17;;
52304;SDS011;38248;52.722;6.734;2022-09-12T02:47:16;29.70;;;21.33;;
52304;SDS011;38248;52.722;6.734;2022-09-12T02:49:52;39.63;;;20.83;;
52304;SDS011;38248;52.722;6.734;2022-09-12T02:52:18;26.27;;;20.30;;
52304;SDS011;38248;52.722;6.734;2022-09-12T02:54:44;25.88;;;21.75;;
52304;SDS011;38248;52.722;6.734;2022-09-12T02:57:14;30.52;;;25.75;;
52304;SDS011;38248;52.722;6.734;2022-09-12T02:59:41;29.75;;;25.08;;
52304;SDS011;38248;52.722;6.734;2022-09-12T03:02:14;32.00;;;24.92;;
52304;SDS011;38248;52.722;6.734;2022-09-12T03:07:13;35.55;;;27.42;;
52304;SDS011;38248;52.722;6.734;2022-09-12T03:12:36;33.78;;;25.13;;
52304;SDS011;38248;52.722;6.734;2022-09-12T03:17:53;33.10;;;25.42;;
52304;SDS011;38248;52.722;6.734;2022-09-12T03:20:43;28.83;;;24.75;;
52304;SDS011;38248;52.722;6.734;2022-09-12T03:23:50;29.73;;;25.00;;
52304;SDS011;38248;52.722;6.734;2022-09-12T03:26:23;33.00;;;23.88;;
52304;SDS011;38248;52.722;6.734;2022-09-12T03:28:56;61.08;;;29.33;;
52304;SDS011;38248;52.722;6.734;2022-09-12T03:31:23;30.95;;;24.42;;
52304;SDS011;38248;52.722;6.734;2022-09-12T03:33:49;33.00;;;24.75;;
52304;SDS011;38248;52.722;6.734;2022-09-12T03:36:15;41.13;;;25.92;;
52304;SDS011;38248;52.722;6.734;2022-09-12T03:38:47;45.78;;;29.13;;
52304;SDS011;38248;52.722;6.734;2022-09-12T03:41:13;38.50;;;27.98;;
52304;SDS011;38248;52.722;6.734;2022-09-12T03:43:39;40.53;;;30.20;;
52304;SDS011;38248;52.722;6.734;2022-09-12T03:46:04;51.65;;;33.00;;
52304;SDS011;38248;52.722;6.734;2022-09-12T03:48:30;44.20;;;27.50;;
52304;SDS011;38248;52.722;6.734;2022-09-12T03:51:00;38.17;;;27.35;;
52304;SDS011;38248;52.722;6.734;2022-09-12T03:53:27;36.42;;;26.55;;
52304;SDS011;38248;52.722;6.734;2022-09-12T03:55:52;35.20;;;25.38;;
52304;SDS011;38248;52.722;6.734;2022-09-12T03:58:18;30.55;;;23.98;;
52304;SDS011;38248;52.722;6.734;2022-09-12T04:00:43;41.95;;;25.90;;
52304;SDS011;38248;52.722;6.734;2022-09-12T04:03:09;31.40;;;24.58;;
52304;SDS011;38248;52.722;6.734;2022-09-12T04:05:35;32.85;;;23.55;;
52304;SDS011;38248;52.722;6.734;2022-09-12T04:08:01;32.45;;;25.02;;
52304;SDS011;38248;52.722;6.734;2022-09-12T04:10:27;42.95;;;29.63;;
52304;SDS011;38248;52.722;6.734;2022-09-12T04:12:52;40.92;;;28.52;;
52304;SDS011;38248;52.722;6.734;2022-09-12T04:15:18;39.75;;;28.33;;
52304;SDS011;38248;52.722;6.734;2022-09-12T04:17:43;41.60;;;29.38;;
52304;SDS011;38248;52.722;6.734;2022-09-12T04:20:09;45.42;;;30.38;;
52304;SDS011;38248;52.722;6.734;2022-09-12T04:22:35;46.60;;;31.10;;
52304;SDS011;38248;52.722;6.734;2022-09-12T04:25:00;45.10;;;31.63;;
52304;SDS011;38248;52.722;6.734;2022-09-12T04:27:26;45.08;;;30.35;;
52304;SDS011;38248;52.722;6.734;2022-09-12T04:29:52;40.35;;;28.67;;
52304;SDS011;38248;52.722;6.734;2022-09-12T04:32:19;44.45;;;29.80;;
52304;SDS011;38248;52.722;6.734;2022-09-12T04:34:46;45.85;;;28.73;;
52304;SDS011;38248;52.722;6.734;2022-09-12T04:37:11;45.40;;;29.23;;
52304;SDS011;38248;52.722;6.734;2022-09-12T04:39:37;42.50;;;29.70;;
52304;SDS011;38248;52.722;6.734;2022-09-12T04:42:02;41.42;;;29.15;;
52304;SDS011;38248;52.722;6.734;2022-09-12T04:44:28;44.63;;;29.15;;
52304;SDS011;38248;52.722;6.734;2022-09-12T04:46:55;45.10;;;28.80;;
52304;SDS011;38248;52.722;6.734;2022-09-12T04:49:21;43.80;;;28.67;;
52304;SDS011;38248;52.722;6.734;2022-09-12T04:51:47;37.33;;;27.50;;
52304;SDS011;38248;52.722;6.734;2022-09-12T04:54:17;43.60;;;29.35;;
52304;SDS011;38248;52.722;6.734;2022-09-12T04:56:44;39.45;;;26.83;;
52304;SDS011;38248;52.722;6.734;2022-09-12T04:59:12;36.45;;;25.63;;
52304;SDS011;38248;52.722;6.734;2022-09-12T05:01:39;36.75;;;28.02;;
52304;SDS011;38248;52.722;6.734;2022-09-12T05:04:05;34.03;;;25.10;;
52304;SDS011;38248;52.722;6.734;2022-09-12T05:06:32;39.38;;;27.42;;
52304;SDS011;38248;52.722;6.734;2022-09-12T05:08:59;33.28;;;25.15;;
52304;SDS011;38248;52.722;6.734;2022-09-12T05:11:32;39.67;;;27.83;;
52304;SDS011;38248;52.722;6.734;2022-09-12T05:14:01;37.28;;;27.13;;
52304;SDS011;38248;52.722;6.734;2022-09-12T05:16:26;35.70;;;26.27;;
52304;SDS011;38248;52.722;6.734;2022-09-12T05:18:52;36.00;;;26.90;;
52304;SDS011;38248;52.722;6.734;2022-09-12T05:21:20;37.30;;;28.13;;
52304;SDS011;38248;52.722;6.734;2022-09-12T05:23:50;40.47;;;27.77;;
52304;SDS011;38248;52.722;6.734;2022-09-12T05:26:17;37.03;;;28.23;;
52304;SDS011;38248;52.722;6.734;2022-09-12T05:28:44;36.13;;;27.55;;
52304;SDS011;38248;52.722;6.734;2022-09-12T05:33:39;35.67;;;27.08;;
52304;SDS011;38248;52.722;6.734;2022-09-12T05:36:08;39.78;;;29.30;;
52304;SDS011;38248;52.722;6.734;2022-09-12T05:38:37;40.38;;;28.85;;
52304;SDS011;38248;52.722;6.734;2022-09-12T05:41:07;42.35;;;30.48;;
52304;SDS011;38248;52.722;6.734;2022-09-12T05:43:35;43.22;;;30.35;;
52304;SDS011;38248;52.722;6.734;2022-09-12T05:46:02;42.53;;;31.27;;
52304;SDS011;38248;52.722;6.734;2022-09-12T05:48:29;44.10;;;30.77;;
52304;SDS011;38248;52.722;6.734;2022-09-12T05:51:00;49.72;;;31.63;;
52304;SDS011;38248;52.722;6.734;2022-09-12T05:53:43;45.95;;;32.53;;
52304;SDS011;38248;52.722;6.734;2022-09-12T05:56:10;46.72;;;32.92;;
52304;SDS011;38248;52.722;6.734;2022-09-12T05:58:39;47.70;;;33.78;;
52304;SDS011;38248;52.722;6.734;2022-09-12T06:01:16;51.55;;;33.63;;
52304;SDS011;38248;52.722;6.734;2022-09-12T06:03:47;51.03;;;33.50;;
52304;SDS011;38248;52.722;6.734;2022-09-12T06:06:15;55.88;;;35.40;;
52304;SDS011;38248;52.722;6.734;2022-09-12T06:08:43;54.80;;;35.75;;
52304;SDS011;38248;52.722;6.734;2022-09-12T06:11:11;55.15;;;35.92;;
52304;SDS011;38248;52.722;6.734;2022-09-12T06:13:47;54.47;;;36.05;;
52304;SDS011;38248;52.722;6.734;2022-09-12T06:16:15;53.42;;;34.80;;
52304;SDS011;38248;52.722;6.734;2022-09-12T06:18:50;56.90;;;35.83;;
52304;SDS011;38248;52.722;6.734;2022-09-12T06:21:18;55.97;;;36.80;;
52304;SDS011;38248;52.722;6.734;2022-09-12T06:23:44;51.75;;;36.38;;
52304;SDS011;38248;52.722;6.734;2022-09-12T06:26:10;60.58;;;36.33;;
52304;SDS011;38248;52.722;6.734;2022-09-12T06:28:37;57.38;;;36.92;;
52304;SDS011;38248;52.722;6.734;2022-09-12T06:31:05;54.95;;;37.35;;
52304;SDS011;38248;52.722;6.734;2022-09-12T06:33:37;56.20;;;36.53;;
52304;SDS011;38248;52.722;6.734;2022-09-12T06:36:08;58.22;;;36.78;;
52304;SDS011;38248;52.722;6.734;2022-09-12T06:38:40;55.92;;;36.78;;
52304;SDS011;38248;52.722;6.734;2022-09-12T06:41:07;52.20;;;35.20;;
52304;SDS011;38248;52.722;6.734;2022-09-12T06:43:34;54.38;;;35.70;;
52304;SDS011;38248;52.722;6.734;2022-09-12T06:46:00;53.85;;;36.00;;
52304;SDS011;38248;52.722;6.734;2022-09-12T06:48:26;53.47;;;35.65;;
52304;SDS011;38248;52.722;6.734;2022-09-12T06:53:25;49.30;;;34.08;;
52304;SDS011;38248;52.722;6.734;2022-09-12T06:55:58;52.03;;;32.72;;
52304;SDS011;38248;52.722;6.734;2022-09-12T06:58:25;45.67;;;31.95;;
52304;SDS011;38248;52.722;6.734;2022-09-12T07:00:52;44.15;;;31.83;;
52304;SDS011;38248;52.722;6.734;2022-09-12T07:03:29;43.72;;;31.35;;
52304;SDS011;38248;52.722;6.734;2022-09-12T07:05:56;44.38;;;31.33;;
52304;SDS011;38248;52.722;6.734;2022-09-12T07:08:25;47.75;;;30.92;;
52304;SDS011;38248;52.722;6.734;2022-09-12T07:10:53;40.88;;;31.00;;
52304;SDS011;38248;52.722;6.734;2022-09-12T07:13:19;46.83;;;30.92;;
52304;SDS011;38248;52.722;6.734;2022-09-12T07:15:44;44.28;;;30.60;;
52304;SDS011;38248;52.722;6.734;2022-09-12T07:18:10;41.58;;;30.55;;
52304;SDS011;38248;52.722;6.734;2022-09-12T07:20:36;40.78;;;28.67;;
52304;SDS011;38248;52.722;6.734;2022-09-12T07:23:03;42.88;;;30.13;;
52304;SDS011;38248;52.722;6.734;2022-09-12T07:25:28;40.53;;;28.92;;
52304;SDS011;38248;52.722;6.734;2022-09-12T07:27:54;40.85;;;29.00;;
52304;SDS011;38248;52.722;6.734;2022-09-12T07:30:20;36.92;;;29.45;;
52304;SDS011;38248;52.722;6.734;2022-09-12T07:32:50;42.55;;;29.42;;
52304;SDS011;38248;52.722;6.734;2022-09-12T07:35:16;40.25;;;28.20;;
52304;SDS011;38248;52.722;6.734;2022-09-12T07:37:42;42.22;;;29.55;;
52304;SDS011;38248;52.722;6.734;2022-09-12T07:40:07;37.40;;;27.92;;
52304;SDS011;38248;52.722;6.734;2022-09-12T07:42:34;36.28;;;28.02;;
52304;SDS011;38248;52.722;6.734;2022-09-12T07:45:00;34.28;;;27.05;;
52304;SDS011;38248;52.722;6.734;2022-09-12T07:47:25;35.03;;;26.38;;
52304;SDS011;38248;52.722;6.734;2022-09-12T07:49:51;29.55;;;23.23;;
52304;SDS011;38248;52.722;6.734;2022-09-12T07:52:18;34.25;;;26.90;;
52304;SDS011;38248;52.722;6.734;2022-09-12T07:54:44;33.40;;;26.38;;
52304;SDS011;38248;52.722;6.734;2022-09-12T07:57:10;33.75;;;24.05;;
52304;SDS011;38248;52.722;6.734;2022-09-12T07:59:35;34.80;;;24.48;;
52304;SDS011;38248;52.722;6.734;2022-09-12T08:02:09;31.60;;;24.17;;
52304;SDS011;38248;52.722;6.734;2022-09-12T08:04:37;32.30;;;24.05;;
52304;SDS011;38248;52.722;6.734;2022-09-12T08:07:02;29.52;;;24.10;;
52304;SDS011;38248;52.722;6.734;2022-09-12T08:09:28;28.27;;;23.55;;
52304;SDS011;38248;52.722;6.734;2022-09-12T08:11:54;33.45;;;25.27;;
52304;SDS011;38248;52.722;6.734;2022-09-12T08:14:19;31.20;;;23.48;;
52304;SDS011;38248;52.722;6.734;2022-09-12T08:16:45;29.75;;;23.55;;
52304;SDS011;38248;52.722;6.734;2022-09-12T08:19:12;29.45;;;23.08;;
52304;SDS011;38248;52.722;6.734;2022-09-12T08:21:37;27.70;;;21.85;;
52304;SDS011;38248;52.722;6.734;2022-09-12T08:24:04;29.30;;;23.67;;
52304;SDS011;38248;52.722;6.734;2022-09-12T08:26:31;30.98;;;24.33;;
52304;SDS011;38248;52.722;6.734;2022-09-12T08:28:57;28.63;;;22.63;;
52304;SDS011;38248;52.722;6.734;2022-09-12T08:31:24;26.15;;;22.13;;
52304;SDS011;38248;52.722;6.734;2022-09-12T08:33:51;29.13;;;23.23;;
52304;SDS011;38248;52.722;6.734;2022-09-12T08:36:21;31.02;;;22.77;;
52304;SDS011;38248;52.722;6.734;2022-09-12T08:38:50;33.58;;;24.85;;
52304;SDS011;38248;52.722;6.734;2022-09-12T08:41:22;34.22;;;25.17;;
52304;SDS011;38248;52.722;6.734;2022-09-12T08:52:02;34.30;;;25.83;;
52304;SDS011;38248;52.722;6.734;2022-09-12T08:54:34;36.50;;;26.52;;
52304;SDS011;38248;52.722;6.734;2022-09-12T08:57:01;34.08;;;26.42;;
52304;SDS011;38248;52.722;6.734;2022-09-12T08:59:36;36.75;;;27.13;;
52304;SDS011;38248;52.722;6.734;2022-09-12T09:02:04;32.47;;;26.52;;
52304;SDS011;38248;52.722;6.734;2022-09-12T09:04:50;38.40;;;27.23;;
52304;SDS011;38248;52.722;6.734;2022-09-12T09:07:39;35.22;;;26.00;;
52304;SDS011;38248;52.722;6.734;2022-09-12T09:13:20;34.30;;;27.33;;
52304;SDS011;38248;52.722;6.734;2022-09-12T09:16:37;34.08;;;24.58;;
52304;SDS011;38248;52.722;6.734;2022-09-12T09:19:09;34.28;;;25.95;;
52304;SDS011;38248;52.722;6.734;2022-09-12T09:21:44;40.42;;;27.85;;
52304;SDS011;38248;52.722;6.734;2022-09-12T09:24:20;32.42;;;24.20;;
52304;SDS011;38248;52.722;6.734;2022-09-12T09:26:55;38.17;;;27.27;;
52304;SDS011;38248;52.722;6.734;2022-09-12T09:29:29;42.28;;;26.65;;
52304;SDS011;38248;52.722;6.734;2022-09-12T09:32:02;35.47;;;26.50;;
52304;SDS011;38248;52.722;6.734;2022-09-12T09:34:37;35.17;;;25.05;;
52304;SDS011;38248;52.722;6.734;2022-09-12T09:37:11;37.75;;;26.85;;
52304;SDS011;38248;52.722;6.734;2022-09-12T09:42:44;41.72;;;27.52;;
52304;SDS011;38248;52.722;6.734;2022-09-12T09:45:21;40.28;;;28.73;;
52304;SDS011;38248;52.722;6.734;2022-09-12T09:50:37;39.92;;;26.42;;
52304;SDS011;38248;52.722;6.734;2022-09-12T09:53:03;36.83;;;25.38;;
52304;SDS011;38248;52.722;6.734;2022-09-12T09:55:33;36.42;;;25.52;;
52304;SDS011;38248;52.722;6.734;2022-09-12T09:58:05;37.95;;;26.38;;
52304;SDS011;38248;52.722;6.734;2022-09-12T10:00:31;31.13;;;22.92;;
52304;SDS011;38248;52.722;6.734;2022-09-12T10:02:59;35.88;;;22.95;;
52304;SDS011;38248;52.722;6.734;2022-09-12T10:05:27;29.23;;;21.45;;
52304;SDS011;38248;52.722;6.734;2022-09-12T10:07:53;31.33;;;22.50;;
52304;SDS011;38248;52.722;6.734;2022-09-12T10:10:21;31.48;;;23.00;;
52304;SDS011;38248;52.722;6.734;2022-09-12T10:12:47;27.10;;;20.73;;
52304;SDS011;38248;52.722;6.734;2022-09-12T10:15:20;31.45;;;22.77;;
52304;SDS011;38248;52.722;6.734;2022-09-12T10:17:53;29.33;;;22.23;;
52304;SDS011;38248;52.722;6.734;2022-09-12T10:20:32;30.25;;;23.17;;
52304;SDS011;38248;52.722;6.734;2022-09-12T10:26:01;29.20;;;21.90;;
52304;SDS011;38248;52.722;6.734;2022-09-12T10:28:37;27.48;;;21.83;;
52304;SDS011;38248;52.722;6.734;2022-09-12T10:31:09;31.00;;;21.67;;
52304;SDS011;38248;52.722;6.734;2022-09-12T10:33:48;26.73;;;21.77;;
52304;SDS011;38248;52.722;6.734;2022-09-12T10:36:20;28.77;;;21.52;;
52304;SDS011;38248;52.722;6.734;2022-09-12T10:39:06;28.23;;;22.33;;
52304;SDS011;38248;52.722;6.734;2022-09-12T10:41:41;30.90;;;23.30;;
52304;SDS011;38248;52.722;6.734;2022-09-12T10:44:16;32.45;;;22.25;;
52304;SDS011;38248;52.722;6.734;2022-09-12T10:46:50;26.08;;;20.52;;
52304;SDS011;38248;52.722;6.734;2022-09-12T10:49:20;27.63;;;20.25;;
52304;SDS011;38248;52.722;6.734;2022-09-12T10:51:49;26.42;;;20.80;;
52304;SDS011;38248;52.722;6.734;2022-09-12T10:54:17;27.55;;;21.20;;
52304;SDS011;38248;52.722;6.734;2022-09-12T10:59:55;26.15;;;18.42;;
52304;SDS011;38248;52.722;6.734;2022-09-12T11:02:48;26.00;;;18.60;;
52304;SDS011;38248;52.722;6.734;2022-09-12T11:08:37;27.98;;;20.17;;
52304;SDS011;38248;52.722;6.734;2022-09-12T11:22:12;26.58;;;19.88;;
52304;SDS011;38248;52.722;6.734;2022-09-12T11:25:12;24.58;;;19.13;;
52304;SDS011;38248;52.722;6.734;2022-09-12T11:30:22;21.58;;;15.40;;
52304;SDS011;38248;52.722;6.734;2022-09-12T11:32:54;21.73;;;15.88;;
52304;SDS011;38248;52.722;6.734;2022-09-12T11:40:48;16.98;;;15.05;;
52304;SDS011;38248;52.722;6.734;2022-09-12T11:43:45;20.00;;;15.70;;
52304;SDS011;38248;52.722;6.734;2022-09-12T11:46:35;15.02;;;12.82;;
52304;SDS011;38248;52.722;6.734;2022-09-12T11:49:09;17.25;;;14.10;;
52304;SDS011;38248;52.722;6.734;2022-09-12T11:54:25;18.80;;;15.73;;
52304;SDS011;38248;52.722;6.734;2022-09-12T11:57:20;18.58;;;15.68;;
52304;SDS011;38248;52.722;6.734;2022-09-12T12:02:40;16.10;;;12.35;;
52304;SDS011;38248;52.722;6.734;2022-09-12T12:05:28;19.75;;;14.35;;
52304;SDS011;38248;52.722;6.734;2022-09-12T12:08:16;16.77;;;12.93;;
52304;SDS011;38248;52.722;6.734;2022-09-12T12:10:58;17.45;;;12.60;;
52304;SDS011;38248;52.722;6.734;2022-09-12T12:13:30;15.95;;;12.60;;
52304;SDS011;38248;52.722;6.734;2022-09-12T12:16:22;16.70;;;13.50;;
52304;SDS011;38248;52.722;6.734;2022-09-12T12:18:55;18.00;;;13.65;;
52304;SDS011;38248;52.722;6.734;2022-09-12T12:26:41;16.02;;;12.77;;
52304;SDS011;38248;52.722;6.734;2022-09-12T12:29:10;15.23;;;12.73;;
52304;SDS011;38248;52.722;6.734;2022-09-12T12:45:00;13.70;;;11.02;;
52304;SDS011;38248;52.722;6.734;2022-09-12T12:47:46;13.40;;;10.63;;
52304;SDS011;38248;52.722;6.734;2022-09-12T12:52:47;13.35;;;9.68;;
52304;SDS011;38248;52.722;6.734;2022-09-12T12:55:17;9.15;;;8.23;;
52304;SDS011;38248;52.722;6.734;2022-09-12T12:57:51;10.43;;;8.57;;
52304;SDS011;38248;52.722;6.734;2022-09-12T13:02:51;11.70;;;8.90;;
52304;SDS011;38248;52.722;6.734;2022-09-12T13:05:26;10.63;;;8.80;;
52304;SDS011;38248;52.722;6.734;2022-09-12T13:08:00;10.95;;;9.13;;
52304;SDS011;38248;52.722;6.734;2022-09-12T13:10:31;10.45;;;8.77;;
52304;SDS011;38248;52.722;6.734;2022-09-12T13:13:02;9.80;;;8.80;;
52304;SDS011;38248;52.722;6.734;2022-09-12T13:18:03;9.95;;;8.60;;
52304;SDS011;38248;52.722;6.734;2022-09-12T13:20:32;9.63;;;8.20;;
52304;SDS011;38248;52.722;6.734;2022-09-12T13:23:02;12.57;;;8.82;;
52304;SDS011;38248;52.722;6.734;2022-09-12T13:25:32;10.73;;;8.27;;
52304;SDS011;38248;52.722;6.734;2022-09-12T13:28:03;12.00;;;8.43;;
52304;SDS011;38248;52.722;6.734;2022-09-12T13:30:39;11.32;;;7.20;;
52304;SDS011;38248;52.722;6.734;2022-09-12T13:33:16;10.68;;;7.18;;
52304;SDS011;38248;52.722;6.734;2022-09-12T13:36:05;9.65;;;7.65;;
52304;SDS011;38248;52.722;6.734;2022-09-12T13:39:13;8.52;;;7.47;;
52304;SDS011;38248;52.722;6.734;2022-09-12T13:41:53;11.55;;;8.90;;
52304;SDS011;38248;52.722;6.734;2022-09-12T13:44:42;9.32;;;8.43;;
52304;SDS011;38248;52.722;6.734;2022-09-12T13:47:40;10.55;;;8.70;;
52304;SDS011;38248;52.722;6.734;2022-09-12T13:50:10;10.63;;;8.70;;
52304;SDS011;38248;52.722;6.734;2022-09-12T13:52:53;9.45;;;8.38;;
52304;SDS011;38248;52.722;6.734;2022-09-12T13:55:26;9.95;;;7.90;;
52304;SDS011;38248;52.722;6.734;2022-09-12T13:58:02;9.85;;;8.13;;
52304;SDS011;38248;52.722;6.734;2022-09-12T14:00:44;10.23;;;9.10;;
52304;SDS011;38248;52.722;6.734;2022-09-12T14:03:30;6.82;;;6.13;;
52304;SDS011;38248;52.722;6.734;2022-09-12T14:06:18;7.80;;;6.50;;
52304;SDS011;38248;52.722;6.734;2022-09-12T14:08:45;7.15;;;6.28;;
52304;SDS011;38248;52.722;6.734;2022-09-12T14:11:17;5.65;;;5.05;;
52304;SDS011;38248;52.722;6.734;2022-09-12T14:13:48;6.47;;;4.68;;
52304;SDS011;38248;52.722;6.734;2022-09-12T14:16:16;5.13;;;4.00;;
52304;SDS011;38248;52.722;6.734;2022-09-12T14:18:45;5.90;;;4.55;;
52304;SDS011;38248;52.722;6.734;2022-09-12T14:21:54;6.65;;;4.40;;
52304;SDS011;38248;52.722;6.734;2022-09-12T14:24:02;4.93;;;4.53;;
52304;SDS011;38248;52.722;6.734;2022-09-12T14:26:36;5.03;;;4.32;;
52304;SDS011;38248;52.722;6.734;2022-09-12T14:29:06;5.13;;;4.63;;
52304;SDS011;38248;52.722;6.734;2022-09-12T14:31:36;4.93;;;4.45;;
52304;SDS011;38248;52.722;6.734;2022-09-12T14:34:21;7.00;;;4.40;;
52304;SDS011;38248;52.722;6.734;2022-09-12T14:36:47;5.82;;;3.72;;
52304;SDS011;38248;52.722;6.734;2022-09-12T14:39:32;4.43;;;3.60;;
52304;SDS011;38248;52.722;6.734;2022-09-12T14:42:10;3.53;;;2.80;;
52304;SDS011;38248;52.722;6.734;2022-09-12T14:44:41;4.25;;;2.70;;
52304;SDS011;38248;52.722;6.734;2022-09-12T14:47:31;4.72;;;3.17;;
52304;SDS011;38248;52.722;6.734;2022-09-12T14:50:13;4.72;;;2.60;;
52304;SDS011;38248;52.722;6.734;2022-09-12T14:53:04;3.47;;;3.13;;
52304;SDS011;38248;52.722;6.734;2022-09-12T14:55:31;5.22;;;2.92;;
52304;SDS011;38248;52.722;6.734;2022-09-12T14:58:06;4.57;;;3.30;;
52304;SDS011;38248;52.722;6.734;2022-09-12T15:00:50;3.83;;;2.70;;
52304;SDS011;38248;52.722;6.734;2022-09-12T15:03:29;3.25;;;2.53;;
52304;SDS011;38248;52.722;6.734;2022-09-12T15:06:00;3.38;;;2.78;;
52304;SDS011;38248;52.722;6.734;2022-09-12T15:08:27;3.45;;;2.72;;
52304;SDS011;38248;52.722;6.734;2022-09-12T15:10:53;3.95;;;3.08;;
52304;SDS011;38248;52.722;6.734;2022-09-12T15:13:26;3.53;;;2.75;;
52304;SDS011;38248;52.722;6.734;2022-09-12T15:15:56;3.42;;;2.70;;
52304;SDS011;38248;52.722;6.734;2022-09-12T15:18:24;7.85;;;3.83;;
52304;SDS011;38248;52.722;6.734;2022-09-12T15:20:53;4.47;;;3.45;;
52304;SDS011;38248;52.722;6.734;2022-09-12T15:23:26;4.63;;;4.22;;
52304;SDS011;38248;52.722;6.734;2022-09-12T15:25:59;5.57;;;4.05;;
52304;SDS011;38248;52.722;6.734;2022-09-12T15:28:25;5.90;;;4.10;;
52304;SDS011;38248;52.722;6.734;2022-09-12T15:30:52;3.97;;;3.42;;
52304;SDS011;38248;52.722;6.734;2022-09-12T15:33:20;4.10;;;3.70;;
52304;SDS011;38248;52.722;6.734;2022-09-12T15:35:48;3.95;;;3.33;;
52304;SDS011;38248;52.722;6.734;2022-09-12T15:38:14;4.03;;;3.70;;
52304;SDS011;38248;52.722;6.734;2022-09-12T15:40:40;4.70;;;4.20;;
52304;SDS011;38248;52.722;6.734;2022-09-12T15:43:06;5.65;;;4.13;;
52304;SDS011;38248;52.722;6.734;2022-09-12T15:45:33;6.72;;;3.90;;
52304;SDS011;38248;52.722;6.734;2022-09-12T15:47:59;4.57;;;4.20;;
52304;SDS011;38248;52.722;6.734;2022-09-12T15:50:27;5.10;;;4.60;;
52304;SDS011;38248;52.722;6.734;2022-09-12T15:52:53;4.85;;;4.45;;
52304;SDS011;38248;52.722;6.734;2022-09-12T15:55:23;6.00;;;4.25;;
52304;SDS011;38248;52.722;6.734;2022-09-12T15:57:51;5.00;;;4.13;;
52304;SDS011;38248;52.722;6.734;2022-09-12T16:00:17;7.63;;;3.58;;
52304;SDS011;38248;52.722;6.734;2022-09-12T16:02:44;3.97;;;3.53;;
52304;SDS011;38248;52.722;6.734;2022-09-12T16:05:16;4.53;;;4.13;;
52304;SDS011;38248;52.722;6.734;2022-09-12T16:07:46;4.18;;;3.78;;
52304;SDS011;38248;52.722;6.734;2022-09-12T16:10:16;5.22;;;3.92;;
52304;SDS011;38248;52.722;6.734;2022-09-12T16:12:44;4.60;;;3.80;;
52304;SDS011;38248;52.722;6.734;2022-09-12T16:15:14;4.10;;;3.70;;
52304;SDS011;38248;52.722;6.734;2022-09-12T16:17:42;4.85;;;3.75;;
52304;SDS011;38248;52.722;6.734;2022-09-12T16:20:08;3.65;;;3.35;;
52304;SDS011;38248;52.722;6.734;2022-09-12T16:22:35;6.60;;;4.68;;
52304;SDS011;38248;52.722;6.734;2022-09-12T16:25:00;4.43;;;3.85;;
52304;SDS011;38248;52.722;6.734;2022-09-12T16:27:26;5.05;;;3.90;;
52304;SDS011;38248;52.722;6.734;2022-09-12T16:29:52;4.55;;;3.60;;
52304;SDS011;38248;52.722;6.734;2022-09-12T16:32:17;3.78;;;3.47;;
52304;SDS011;38248;52.722;6.734;2022-09-12T16:34:43;3.72;;;2.92;;
52304;SDS011;38248;52.722;6.734;2022-09-12T16:37:09;3.45;;;3.10;;
52304;SDS011;38248;52.722;6.734;2022-09-12T16:39:34;4.70;;;3.40;;
52304;SDS011;38248;52.722;6.734;2022-09-12T16:42:00;3.53;;;3.22;;
52304;SDS011;38248;52.722;6.734;2022-09-12T16:44:26;3.25;;;2.95;;
52304;SDS011;38248;52.722;6.734;2022-09-12T16:46:51;3.78;;;3.20;;
52304;SDS011;38248;52.722;6.734;2022-09-12T16:49:17;4.57;;;2.78;;